Detall de PIREP

Printer-friendly versionPDF version

[2010/10/01 16:01:00]
Flight IATA:CT0001
Pilot Number:042
Company ICAO:CAT
Aircraft Type:AT72/F
PAX:30
Departing Airport: LEMH
Destination Airport: LEVC
Alternate Airport:LEPA
Online: VATSIM
Route:MJV A33 RIKOS
Flight Level:FL190
No Slew and time accel
No pause
Crash detect
Detect pilot in Cockpit between each 30 and 45 minutes
16:01 Zero fuel Weight: 37063 Lbs, Fuel Weight: 11201 Lbs
16:01 VATSIM:LEMH 011530Z 19010KT 160V220 9999 SCT015 24/19 Q1013
16:01 VATSIM:LEVC 011530Z 09010KT 060V140 9999 FEW030 24/19 Q1012 NOSIG
16:01 VOICE CATALONIAN
16:10 Parking Brakes off
16:14 Take-off
16:14 Take off Weight: 48204 Lbs
16:14 Wind: 196 @ 010 Knots Heading: 190
16:14 POS N39 51 28 E004 13 03
16:14 Gear Up: 143 Knots
16:14 Flaps:1 at 143 Knots
16:15 Flaps:0 at 170 Knots
16:23 TOC
16:23 Fuel Weight: 10727 Lb
16:29 Wind:280@024 Knots Heading: 281 Ground Speed: 258 Knots Altitude 18996 ft
16:44 Wind:276@023 Knots Heading: 272 Ground Speed: 260 Knots Altitude 18989 ft
16:47 TOD
16:47 Fuel Weight: 9942 Lb
16:59 Wind:247@011 Knots Heading: 269 Ground Speed: 193 Knots Altitude 6984 ft
17:13 Flaps:1 at 154 Knots
17:14 Wind:080@008 Knots Heading: 268 Ground Speed: 193 Knots Altitude 2847 ft
17:14 Flaps:0 at 199 Knots
17:16 Flaps:1 at 164 Knots
17:20 Gear Down: 168 Knots
17:20 Flaps:2 at 168 Knots
17:25 TouchDown:Rate -386 ft/min Speed: 128 Knots
17:25 VATSIM:LEVC 011700Z 08008KT 9999 SCT016 BKN019 23/20 Q1013 NOSIG
17:25 Land
17:25 Wind:083@008 Knots
17:25 Heading: 114
17:25 Flight Duration: 01:11
17:25 Landing Weight: 46419 Lbs
17:25 POS N39 29 19 W000 28 51
17:27 Parking brakes on
17:27 Block to Block Duration: 01:17
17:27 Final Fuel: 9340 Lbls
17:27 Spent Fuel: 1860 Lbls
17:27 Flight Length:264 NM
17:27 TOD Land Length: 127 NM

Exportar CSV

Powered by Drupal - Modified by Danger4k